Time;durP1;ratioP1;P1;durP2;ratioP2;P2;SDS_P1;SDS_P2;PMS_P1;PMS_P2;Temp;Humidity;BMP_temperature;BMP_pressure;BME280_temperature;BME280_humidity;BME280_pressure;Samples;Min_cycle;Max_cycle;Signal;HPM_P1;HPM_P2
2022/11/11 00:00:32;;;;;;;32.50;14.97;;;;;;;18.25;55.63;102830.19;5050689;28;20119;-70
2022/11/11 00:02:57;;;;;;;26.17;14.20;;;;;;;18.81;54.50;102836.56;5052251;28;20078;-70
2022/11/11 00:05:24;;;;;;;30.83;16.87;;;;;;;17.10;60.43;102844.28;5051957;28;20032;-70
2022/11/11 00:07:58;;;;;;;32.00;15.97;;;;;;;17.93;57.69;102840.19;5048767;28;20032;-71
2022/11/11 00:10:25;;;;;;;27.47;15.47;;;;;;;18.48;56.29;102838.75;5052303;28;20561;-70
2022/11/11 00:12:50;;;;;;;31.97;16.00;;;;;;;17.89;57.77;102837.56;5051293;28;20432;-70
2022/11/11 00:15:16;;;;;;;27.60;16.27;;;;;;;17.63;57.80;102842.16;5049525;28;20049;-70
2022/11/11 00:26:04;;;;;;;36.80;17.33;;;;;;;17.36;59.03;102853.81;5050714;28;20158;-70
2022/11/11 00:28:29;;;;;;;33.50;16.83;;;;;;;17.32;58.69;102848.56;5049214;28;20464;-71
2022/11/11 00:31:12;;;;;;;31.60;16.50;;;;;;;17.71;57.56;102838.56;5049737;28;20029;-71
2022/11/11 00:33:38;;;;;;;30.90;18.08;;;;;;;18.08;56.14;102832.97;5052347;28;20016;-71
2022/11/11 00:36:05;;;;;;;31.30;18.80;;;;;;;17.90;57.08;102834.91;5048512;28;20021;-70
2022/11/11 00:38:45;;;;;;;35.63;18.03;;;;;;;17.85;56.76;102841.13;5050595;28;20025;-70
2022/11/11 00:41:21;;;;;;;33.57;18.33;;;;;;;17.16;60.96;102839.84;5050839;28;20111;-70
2022/11/11 00:43:47;;;;;;;34.43;18.43;;;;;;;18.20;56.10;102832.00;5049540;28;20032;-70
2022/11/11 00:51:45;;;;;;;34.63;18.50;;;;;;;17.55;59.01;102827.25;5052124;28;20075;-70
2022/11/11 00:54:11;;;;;;;38.13;17.93;;;;;;;18.27;55.60;102829.28;5047822;28;20024;-70
2022/11/11 00:56:37;;;;;;;28.70;17.83;;;;;;;18.11;56.78;102823.25;5048520;28;20025;-69
2022/11/11 00:59:07;;;;;;;37.37;19.37;;;;;;;18.33;56.38;102817.75;5050901;28;20130;-70
2022/11/11 01:01:33;;;;;;;32.77;18.53;;;;;;;17.68;58.01;102815.69;5050967;28;20056;-70
2022/11/11 01:03:59;;;;;;;34.80;19.47;;;;;;;17.46;59.63;102822.91;5050131;28;20021;-70
2022/11/11 01:06:25;;;;;;;36.67;18.57;;;;;;;18.79;54.06;102833.09;5049533;28;20029;-69
2022/11/11 01:08:51;;;;;;;34.97;19.00;;;;;;;17.53;58.29;102835.22;5050850;28;20031;-70
2022/11/11 01:11:19;;;;;;;34.03;17.37;;;;;;;18.17;56.23;102822.31;5049545;28;20039;-71
2022/11/11 01:13:44;;;;;;;32.73;18.07;;;;;;;17.87;56.65;102829.63;5049367;28;20078;-71
2022/11/11 01:16:13;;;;;;;33.17;18.00;;;;;;;17.69;57.98;102812.16;5049554;28;20037;-70
2022/11/11 01:18:38;;;;;;;37.83;18.73;;;;;;;18.10;55.32;102815.34;5082850;28;20424;-70
2022/11/11 01:21:09;;;;;;;40.03;20.03;;;;;;;17.90;56.11;102810.19;5051453;28;20029;-70
2022/11/11 01:23:36;;;;;;;33.23;18.83;;;;;;;17.83;57.04;102808.50;5049370;28;20397;-70
2022/11/11 01:26:33;;;;;;;39.27;20.13;;;;;;;17.75;57.23;102804.16;5047867;28;20056;-70
2022/11/11 01:28:58;;;;;;;36.63;19.17;;;;;;;17.74;59.13;102798.91;5046860;28;20037;-70
2022/11/11 01:31:25;;;;;;;37.43;18.50;;;;;;;17.93;57.72;102797.88;5049139;28;20102;-69
2022/11/11 01:33:51;;;;;;;34.77;18.60;;;;;;;18.28;55.29;102803.69;5050692;28;20025;-70
2022/11/11 01:36:17;;;;;;;36.00;19.50;;;;;;;17.58;58.14;102811.38;5049048;28;20465;-71
2022/11/11 01:38:47;;;;;;;40.53;19.20;;;;;;;18.05;56.75;102796.88;5048569;28;20025;-70
2022/11/11 01:41:33;;;;;;;38.63;20.07;;;;;;;18.46;54.53;102803.47;5049863;28;20505;-70
2022/11/11 01:44:11;;;;;;;39.07;20.63;;;;;;;18.35;55.02;102813.28;5050283;28;20080;-70
2022/11/11 01:46:44;;;;;;;43.17;20.10;;;;;;;18.40;54.74;102819.41;5067669;28;20024;-70
2022/11/11 01:49:32;;;;;;;36.20;20.03;;;;;;;18.08;55.20;102825.94;5050757;28;20496;-70
2022/11/11 01:52:11;;;;;;;44.93;19.27;;;;;;;18.77;53.63;102821.63;5048169;28;20025;-70
2022/11/11 01:54:42;;;;;;;37.80;20.23;;;;;;;17.55;56.82;102827.25;5050101;28;20025;-70
2022/11/11 01:57:18;;;;;;;39.07;19.77;;;;;;;18.31;56.15;102825.72;5049037;28;20029;-70
2022/11/11 01:59:48;;;;;;;38.87;19.67;;;;;;;18.89;52.68;102822.38;5047556;28;20498;-70
2022/11/11 02:02:21;;;;;;;37.97;19.43;;;;;;;18.84;53.23;102824.19;5050904;28;20413;-70
2022/11/11 02:07:34;;;;;;;36.60;20.77;;;;;;;18.84;52.74;102813.59;5048722;28;20044;-71
2022/11/11 02:10:02;;;;;;;36.47;19.67;;;;;;;18.34;54.18;102814.22;5049997;28;20071;-70
2022/11/11 02:15:11;;;;;;;41.63;20.33;;;;;;;18.70;53.52;102817.31;5036671;28;20060;-70
2022/11/11 02:17:38;;;;;;;39.53;20.57;;;;;;;17.55;58.72;102817.53;5048566;28;20436;-70
2022/11/11 02:20:05;;;;;;;40.03;20.77;;;;;;;18.28;55.93;102814.25;5048056;28;20544;-70
2022/11/11 02:22:37;;;;;;;40.07;20.90;;;;;;;18.36;54.77;102812.41;5048342;28;20545;-70
2022/11/11 02:25:06;;;;;;;41.25;21.00;;;;;;;17.62;56.41;102813.09;5048824;28;20029;-70
2022/11/11 02:27:35;;;;;;;38.90;21.40;;;;;;;17.99;56.47;102814.56;5078562;28;20067;-70
2022/11/11 02:30:04;;;;;;;46.80;21.73;;;;;;;18.22;56.01;102806.41;5048754;28;20029;-70
2022/11/11 02:32:30;;;;;;;41.90;21.80;;;;;;;18.34;55.00;102808.91;5049542;28;20623;-70
2022/11/11 02:34:55;;;;;;;39.83;21.70;;;;;;;18.27;54.55;102812.50;5047224;28;20033;-71
2022/11/11 02:37:24;;;;;;;42.90;21.83;;;;;;;18.53;53.70;102820.13;5080164;28;20127;-70
2022/11/11 02:39:53;;;;;;;38.30;20.83;;;;;;;18.56;53.79;102813.94;5050574;28;20039;-70
2022/11/11 02:42:20;;;;;;;38.07;20.30;;;;;;;18.16;54.21;102812.63;5046564;28;20056;-69
2022/11/11 02:44:45;;;;;;;39.53;22.23;;;;;;;18.45;55.18;102809.66;5052761;28;20289;-70
2022/11/11 02:47:10;;;;;;;41.50;22.00;;;;;;;18.11;54.98;102803.88;5049009;28;20059;-70
2022/11/11 02:49:36;;;;;;;50.23;22.90;;;;;;;17.71;56.63;102813.03;5047582;28;20107;-70
2022/11/11 02:52:01;;;;;;;39.43;21.73;;;;;;;18.41;54.81;102807.94;5047620;28;20516;-70
2022/11/11 02:54:27;;;;;;;39.90;21.37;;;;;;;18.69;53.55;102810.25;5050003;28;20036;-70
2022/11/11 02:57:07;;;;;;;45.60;22.23;;;;;;;18.07;54.56;102805.66;5053326;28;20025;-70
2022/11/11 02:59:38;;;;;;;49.87;23.57;;;;;;;17.57;56.95;102810.50;5052713;28;20429;-70
2022/11/11 03:02:05;;;;;;;39.00;21.83;;;;;;;18.23;54.69;102805.50;5032779;28;20065;-70
2022/11/11 03:04:31;;;;;;;42.13;21.43;;;;;;;17.86;55.43;102796.16;5044344;28;20021;-70
2022/11/11 03:06:56;;;;;;;48.37;24.03;;;;;;;17.57;56.38;102805.22;5050447;28;20051;-71
2022/11/11 03:09:22;;;;;;;45.60;21.47;;;;;;;17.35;58.02;102801.84;5052581;28;20021;-70
2022/11/11 03:11:47;;;;;;;42.17;22.10;;;;;;;18.37;54.22;102807.97;5051233;28;20469;-70
2022/11/11 03:14:12;;;;;;;39.67;21.43;;;;;;;17.60;57.29;102814.88;5051609;28;20535;-70
2022/11/11 03:19:22;;;;;;;39.40;19.53;;;;;;;18.12;55.02;102822.38;5053524;28;20090;-70
2022/11/11 03:21:47;;;;;;;40.70;21.43;;;;;;;18.94;52.25;102815.25;5052464;28;20033;-70
2022/11/11 03:24:12;;;;;;;43.97;21.33;;;;;;;18.40;53.42;102819.41;5052767;28;20029;-70
2022/11/11 03:26:38;;;;;;;42.57;20.80;;;;;;;18.17;54.09;102826.75;5050847;28;20025;-70
2022/11/11 03:29:04;;;;;;;46.17;22.20;;;;;;;18.36;54.28;102812.41;5051270;28;20464;-70
2022/11/11 03:31:29;;;;;;;40.53;20.53;;;;;;;17.72;56.26;102820.06;5052315;28;20555;-70
2022/11/11 03:33:55;;;;;;;41.70;20.80;;;;;;;17.41;57.64;102825.59;5083067;28;20119;-70
2022/11/11 03:38:14;;;;;;;44.10;21.60;;;;;;;17.88;56.49;102825.22;5048314;28;20051;-70
2022/11/11 03:39:06;;;;;;;39.57;21.53;;;;;;;18.70;53.53;102827.00;5050719;28;20114;-70
2022/11/11 03:41:31;;;;;;;43.23;22.13;;;;;;;17.87;55.82;102820.81;5051159;28;20470;-70
2022/11/11 03:43:56;;;;;;;43.17;21.30;;;;;;;18.29;54.15;102818.66;5051002;28;20031;-70
2022/11/11 03:46:22;;;;;;;42.80;21.53;;;;;;;17.93;55.42;102826.97;5052106;28;20043;-70
2022/11/11 03:48:47;;;;;;;42.93;20.47;;;;;;;17.59;55.86;102829.00;5052360;28;20389;-71
2022/11/11 03:51:13;;;;;;;40.10;21.17;;;;;;;18.14;53.94;102825.88;5053089;28;20431;-70
2022/11/11 03:53:38;;;;;;;41.07;21.37;;;;;;;17.78;55.43;102833.22;5051820;28;20485;-70
2022/11/11 03:56:03;;;;;;;40.23;21.17;;;;;;;18.57;52.75;102836.88;5050337;28;20032;-71
2022/11/11 03:58:29;;;;;;;40.47;20.37;;;;;;;17.85;55.32;102838.47;5051823;28;20401;-71
2022/11/11 04:00:54;;;;;;;37.73;20.53;;;;;;;17.71;55.64;102834.19;5050116;28;20049;-71
2022/11/11 04:11:37;;;;;;;35.93;19.63;;;;;;;17.57;57.21;102846.63;5051020;28;20504;-70
2022/11/11 04:16:52;;;;;;;39.60;19.87;;;;;;;18.10;55.01;102852.38;5052732;28;20044;-70
2022/11/11 04:22:02;;;;;;;36.67;19.40;;;;;;;17.90;55.73;102839.28;5050073;28;20039;-70
2022/11/11 04:27:14;;;;;;;37.37;19.93;;;;;;;18.57;53.46;102839.53;5051681;28;20513;-70
2022/11/11 04:29:40;;;;;;;38.30;19.57;;;;;;;17.89;56.05;102840.22;5050421;28;20375;-70
2022/11/11 04:34:55;;;;;;;39.80;20.07;;;;;;;17.38;57.85;102832.66;5050269;28;20098;-70
2022/11/11 04:37:21;;;;;;;35.23;20.00;;;;;;;18.09;55.35;102824.16;5052179;28;20119;-70
2022/11/11 04:42:32;;;;;;;35.57;19.63;;;;;;;17.71;55.79;102820.97;5049257;28;20048;-70
2022/11/11 04:48:17;;;;;;;37.63;18.70;;;;;;;17.97;54.82;102819.88;5051910;28;20077;-70
2022/11/11 04:50:43;;;;;;;37.27;18.20;;;;;;;16.67;58.29;102823.31;5006725;28;20110;-70
2022/11/11 04:53:10;;;;;;;38.03;19.60;;;;;;;16.96;58.23;102806.50;5050708;28;20036;-70
2022/11/11 04:58:24;;;;;;;42.70;20.13;;;;;;;17.32;56.70;102807.16;5049748;28;20051;-70
2022/11/11 05:00:50;;;;;;;39.00;20.50;;;;;;;17.36;56.37;102800.94;5049733;28;20106;-71
2022/11/11 05:03:20;;;;;;;38.10;19.53;;;;;;;17.44;57.08;102812.34;5049142;28;20051;-71
2022/11/11 05:08:55;;;;;;;34.70;18.88;;;;;;;17.16;56.79;102808.13;5051811;28;20094;-70
2022/11/11 05:11:22;;;;;;;36.40;19.90;;;;;;;17.08;58.59;102817.00;5047559;28;20107;-70
2022/11/11 05:22:10;;;;;;;33.17;20.03;;;;;;;17.52;56.54;102814.06;5050579;28;20043;-71
2022/11/11 05:27:20;;;;;;;37.23;20.17;;;;;;;17.03;58.36;102808.19;5050268;28;20090;-71
2022/11/11 05:29:47;;;;;;;36.17;19.90;;;;;;;16.89;59.81;102820.63;5049117;28;20340;-70
2022/11/11 05:32:17;;;;;;;41.90;21.93;;;;;;;17.27;58.03;102816.88;5048317;28;20021;-70
2022/11/11 05:34:43;;;;;;;38.97;19.77;;;;;;;18.23;54.29;102810.78;5048463;28;20032;-70
2022/11/11 05:37:08;;;;;;;35.67;19.20;;;;;;;17.07;56.64;102820.50;5049009;28;20037;-70
2022/11/11 05:39:34;;;;;;;36.90;19.07;;;;;;;16.24;62.47;102841.94;5051036;28;20029;-71
2022/11/11 05:41:59;;;;;;;40.83;19.03;;;;;;;17.56;55.26;102829.03;5048555;28;20067;-70
2022/11/11 05:44:24;;;;;;;42.33;19.77;;;;;;;17.00;56.79;102842.56;5048219;28;20032;-70
2022/11/11 05:46:50;;;;;;;34.50;18.70;;;;;;;17.06;57.15;102842.56;5048650;28;20432;-71
2022/11/11 05:49:15;;;;;;;39.37;19.10;;;;;;;18.47;54.04;102844.94;5049596;28;20029;-70
2022/11/11 05:51:45;;;;;;;37.67;19.83;;;;;;;18.01;53.52;102848.06;5048914;28;20020;-70
2022/11/11 05:54:12;;;;;;;35.77;17.63;;;;;;;17.36;57.75;102858.22;5047891;28;20039;-70
2022/11/11 05:56:38;;;;;;;31.43;17.73;;;;;;;17.72;54.59;102846.53;5049812;28;20162;-71
2022/11/11 05:59:04;;;;;;;32.83;17.33;;;;;;;17.19;57.25;102860.97;5047967;28;20136;-70
2022/11/11 06:01:30;;;;;;;33.17;16.87;;;;;;;17.56;55.29;102860.75;5049730;28;20068;-70
2022/11/11 06:03:56;;;;;;;30.37;16.80;;;;;;;17.76;55.43;102850.91;5081209;28;20619;-71
2022/11/11 06:06:21;;;;;;;33.53;17.07;;;;;;;17.46;56.75;102860.81;5046537;28;20029;-70
2022/11/11 06:08:46;;;;;;;33.17;17.33;;;;;;;17.81;55.49;102857.00;5050582;28;20032;-70
2022/11/11 06:11:12;;;;;;;31.83;18.50;;;;;;;17.85;54.90;102846.41;5050718;28;20032;-71
2022/11/11 06:13:37;;;;;;;33.83;17.60;;;;;;;16.67;59.21;102852.38;5049842;28;20501;-71
2022/11/11 06:16:03;;;;;;;31.60;18.63;;;;;;;17.79;54.77;102837.63;5046918;28;20029;-70
2022/11/11 06:18:28;;;;;;;30.77;18.70;;;;;;;16.49;59.19;102847.16;5048303;28;20202;-70
2022/11/11 06:20:55;;;;;;;36.47;21.00;;;;;;;17.22;57.94;102850.38;5049515;28;20036;-70
2022/11/11 06:23:21;;;;;;;40.50;20.83;;;;;;;16.66;58.48;102857.66;5050595;28;20024;-71
2022/11/11 06:28:32;;;;;;;36.57;19.10;;;;;;;17.03;58.40;102853.13;5049431;28;20048;-70
2022/11/11 06:30:57;;;;;;;36.23;19.60;;;;;;;17.15;57.26;102854.81;5054759;28;20477;-70
2022/11/11 06:33:23;;;;;;;37.33;19.17;;;;;;;16.49;59.38;102855.06;5052634;28;20488;-70
2022/11/11 06:35:48;;;;;;;37.63;20.67;;;;;;;16.37;60.71;102863.88;5054168;28;20032;-70
2022/11/11 06:38:14;;;;;;;36.17;19.43;;;;;;;16.86;58.24;102865.50;5053365;28;20114;-71
2022/11/11 06:40:41;;;;;;;32.60;19.40;;;;;;;16.39;61.43;102857.72;5052845;28;20075;-70
2022/11/11 06:43:06;;;;;;;37.67;20.03;;;;;;;17.26;57.65;102862.69;5053766;28;20025;-70
2022/11/11 06:45:34;;;;;;;38.43;20.10;;;;;;;16.92;57.81;102865.50;5053474;28;20017;-70
2022/11/11 06:47:59;;;;;;;36.67;20.20;;;;;;;17.04;57.92;102862.81;5054094;28;20093;-71
2022/11/11 06:50:25;;;;;;;35.23;21.10;;;;;;;16.96;57.96;102861.97;5051217;28;20481;-70
2022/11/11 06:52:51;;;;;;;37.97;20.80;;;;;;;16.15;61.44;102873.59;5054657;28;20450;-71
2022/11/11 06:55:17;;;;;;;34.67;20.77;;;;;;;16.36;60.83;102868.31;5051113;28;20029;-71
2022/11/11 06:57:43;;;;;;;38.67;20.20;;;;;;;17.80;55.49;102865.84;5060392;28;20495;-71
2022/11/11 07:00:09;;;;;;;41.90;20.63;;;;;;;17.24;56.40;102875.03;5051895;28;20059;-71
2022/11/11 07:02:34;;;;;;;34.17;19.30;;;;;;;16.49;59.20;102884.13;5048313;28;20033;-71
2022/11/11 07:05:00;;;;;;;38.83;20.23;;;;;;;17.39;56.88;102872.31;5052111;28;20032;-70
2022/11/11 07:07:25;;;;;;;36.83;19.57;;;;;;;16.93;58.02;102875.19;5050776;28;20371;-71
2022/11/11 07:09:51;;;;;;;35.97;19.70;;;;;;;17.62;55.98;102879.19;5051996;28;20029;-69
2022/11/11 07:12:17;;;;;;;36.07;20.23;;;;;;;17.51;54.83;102881.03;5052876;28;20033;-69
2022/11/11 07:14:42;;;;;;;36.47;18.67;;;;;;;17.12;56.09;102890.06;5050309;28;20037;-69
2022/11/11 07:17:08;;;;;;;32.10;18.03;;;;;;;17.94;53.90;102879.00;5045804;28;20029;-70
2022/11/11 07:19:33;;;;;;;36.80;18.70;;;;;;;17.75;54.83;102885.25;5079864;28;20551;-70
2022/11/11 07:21:58;;;;;;;33.80;20.13;;;;;;;16.99;57.11;102890.13;5065320;28;20029;-70
2022/11/11 07:24:24;;;;;;;38.07;19.40;;;;;;;16.80;58.64;102900.72;5049830;28;20039;-70
2022/11/11 07:26:49;;;;;;;34.63;19.70;;;;;;;18.00;54.29;102888.63;5045820;28;20824;-69
2022/11/11 07:29:15;;;;;;;39.73;20.20;;;;;;;16.49;57.97;102903.44;5050923;28;20025;-70
2022/11/11 07:31:41;;;;;;;35.53;19.47;;;;;;;17.67;55.29;102901.19;5051928;28;20468;-70
2022/11/11 07:34:06;;;;;;;38.43;20.10;;;;;;;17.49;55.62;102901.31;5047697;28;20450;-70
2022/11/11 07:36:32;;;;;;;38.87;19.80;;;;;;;17.66;55.41;102904.72;5049098;28;20036;-70
2022/11/11 07:38:57;;;;;;;33.93;20.03;;;;;;;17.20;55.28;102905.00;5052405;28;20028;-70
2022/11/11 07:41:23;;;;;;;32.37;19.33;;;;;;;16.56;57.53;102907.84;5050253;28;20474;-70
2022/11/11 07:43:48;;;;;;;34.47;19.67;;;;;;;17.15;56.86;102906.81;5052741;28;20035;-70
2022/11/11 07:46:14;;;;;;;39.20;20.00;;;;;;;17.51;56.19;102910.13;5053284;28;20108;-70
2022/11/11 07:48:39;;;;;;;30.30;18.90;;;;;;;17.37;55.85;102918.13;5048415;28;20029;-70
2022/11/11 07:51:05;;;;;;;31.20;18.73;;;;;;;17.03;58.22;102919.16;5052238;28;20596;-69
2022/11/11 07:53:30;;;;;;;32.83;19.00;;;;;;;16.66;59.75;102913.97;5048324;28;20025;-69
2022/11/11 07:55:56;;;;;;;35.33;20.17;;;;;;;16.37;59.68;102917.53;5051038;28;20035;-70
2022/11/11 07:58:21;;;;;;;35.87;18.60;;;;;;;17.43;56.27;102919.00;5054838;28;20049;-70
2022/11/11 08:00:47;;;;;;;32.83;18.00;;;;;;;16.76;58.92;102926.28;5053304;28;20037;-70
2022/11/11 08:03:12;;;;;;;29.10;18.37;;;;;;;16.60;58.39;102924.56;5052745;28;20044;-70
2022/11/11 08:05:37;;;;;;;36.40;19.67;;;;;;;16.96;58.52;102938.56;5085779;28;20021;-70
2022/11/11 08:08:05;;;;;;;32.27;18.23;;;;;;;16.32;60.87;102927.25;5049999;28;20741;-70
2022/11/11 08:10:31;;;;;;;35.23;19.43;;;;;;;16.50;61.06;102938.63;5051206;28;20027;-70
2022/11/11 08:15:40;;;;;;;31.07;18.53;;;;;;;17.42;55.91;102948.94;5032326;28;20072;-70
2022/11/11 08:18:06;;;;;;;31.67;18.17;;;;;;;17.28;58.20;102946.38;5039301;28;20056;-70
2022/11/11 08:20:32;;;;;;;30.57;17.73;;;;;;;17.00;57.10;102956.16;5051299;28;20078;-70
2022/11/11 08:22:58;;;;;;;35.90;19.07;;;;;;;17.55;56.52;102960.31;5050238;28;20036;-70
2022/11/11 08:25:24;;;;;;;33.87;18.73;;;;;;;17.01;57.06;102957.94;5051521;28;20032;-70
2022/11/11 08:27:56;;;;;;;30.13;17.53;;;;;;;16.85;57.86;102966.75;5045032;28;20397;-70
2022/11/11 08:30:21;;;;;;;37.25;19.08;;;;;;;16.94;58.18;102961.47;5051138;28;20105;-70
2022/11/11 08:32:47;;;;;;;35.07;17.90;;;;;;;16.98;58.84;102967.63;5084744;28;20478;-70
2022/11/11 08:35:12;;;;;;;25.83;17.03;;;;;;;17.01;58.56;102976.41;5040947;28;20537;-70
2022/11/11 08:37:37;;;;;;;28.63;17.10;;;;;;;17.34;56.70;102969.25;5068016;28;20119;-69
2022/11/11 08:40:03;;;;;;;34.23;17.43;;;;;;;17.33;57.96;102969.25;5042664;28;20528;-68
2022/11/11 08:42:29;;;;;;;28.80;16.07;;;;;;;16.87;58.91;102954.41;5051570;28;20059;-68
2022/11/11 08:44:54;;;;;;;31.23;17.17;;;;;;;17.34;57.10;102971.91;5051930;28;20029;-70
2022/11/11 08:47:21;;;;;;;27.67;16.63;;;;;;;18.12;55.02;102969.66;5051156;28;20466;-70
2022/11/11 08:49:48;;;;;;;29.03;16.30;;;;;;;17.46;55.84;102982.41;5064763;28;20025;-70
2022/11/11 08:52:14;;;;;;;33.20;15.77;;;;;;;17.97;54.41;102978.63;5051187;28;20036;-70
2022/11/11 08:54:40;;;;;;;30.37;16.90;;;;;;;17.75;55.69;102972.53;5050705;28;20071;-70
2022/11/11 08:57:05;;;;;;;27.60;15.50;;;;;;;17.54;56.79;102978.84;5054215;28;20029;-70
2022/11/11 08:59:31;;;;;;;31.83;15.97;;;;;;;17.42;56.35;102991.25;5059516;28;20482;-71
2022/11/11 09:01:56;;;;;;;28.30;15.47;;;;;;;17.37;57.58;102992.16;5051414;28;20020;-70
2022/11/11 09:04:21;;;;;;;28.93;15.37;;;;;;;17.52;56.03;102986.78;5051721;28;20029;-70
2022/11/11 09:06:47;;;;;;;26.50;14.47;;;;;;;17.51;55.77;102992.09;5048272;28;20818;-68
2022/11/11 09:09:13;;;;;;;23.53;14.83;;;;;;;17.76;55.35;102995.47;5054770;28;20423;-67
2022/11/11 09:11:38;;;;;;;27.90;16.30;;;;;;;18.77;52.76;102993.81;5053121;28;20118;-70
2022/11/11 09:14:04;;;;;;;27.13;15.17;;;;;;;18.23;54.04;102993.41;5047359;28;20467;-70
2022/11/11 09:16:29;;;;;;;26.80;15.07;;;;;;;18.68;53.00;103001.84;5039090;28;20516;-70
2022/11/11 09:18:54;;;;;;;27.20;14.93;;;;;;;17.71;56.00;103008.72;5041245;28;20036;-68
2022/11/11 09:21:20;;;;;;;25.23;14.50;;;;;;;17.87;54.49;103008.63;5041131;28;20465;-67
2022/11/11 09:23:45;;;;;;;23.10;13.67;;;;;;;17.52;56.57;103007.06;5037509;28;20024;-68
2022/11/11 09:26:10;;;;;;;21.87;13.57;;;;;;;17.19;58.15;103007.19;5045553;28;20040;-68
2022/11/11 09:28:36;;;;;;;24.37;13.97;;;;;;;17.58;55.44;103007.03;5048715;28;20100;-68
2022/11/11 09:31:02;;;;;;;24.63;14.07;;;;;;;17.54;56.50;103015.84;5044972;28;20115;-69
2022/11/11 09:33:27;;;;;;;27.00;13.90;;;;;;;18.35;54.31;103011.84;5031569;28;20115;-70
2022/11/11 09:35:53;;;;;;;23.27;12.90;;;;;;;17.83;56.07;103013.03;5042776;28;20056;-70
2022/11/11 09:38:19;;;;;;;22.03;13.33;;;;;;;17.70;56.34;103006.97;5040120;28;20108;-70
2022/11/11 09:41:16;;;;;;;23.27;13.53;;;;;;;17.03;56.70;103008.97;5038794;28;20510;-69
2022/11/11 09:43:46;;;;;;;20.97;13.93;;;;;;;17.75;54.83;103015.75;5049087;28;20035;-69
2022/11/11 09:46:32;;;;;;;22.10;13.70;;;;;;;17.53;56.29;103019.38;5053496;28;20024;-69
2022/11/11 09:49:25;;;;;;;27.80;13.87;;;;;;;17.32;58.03;103018.59;5046390;28;20035;-69
2022/11/11 09:52:04;;;;;;;25.17;14.15;;;;;;;17.25;57.67;103020.38;5041454;28;20025;-69
2022/11/11 09:54:58;;;;;;;19.33;13.17;;;;;;;17.41;56.61;103031.78;5039394;28;20476;-69
2022/11/11 09:57:45;;;;;;;20.23;12.83;;;;;;;17.06;58.88;103035.41;5052010;28;20501;-69
2022/11/11 10:00:21;;;;;;;23.60;13.97;;;;;;;17.61;56.91;103033.44;5033933;28;20054;-70
2022/11/11 10:02:58;;;;;;;21.83;13.77;;;;;;;18.27;53.58;103035.75;5033771;28;20127;-69
2022/11/11 10:05:53;;;;;;;20.47;14.03;;;;;;;18.56;52.25;103037.28;5037269;28;20036;-69
2022/11/11 10:08:29;;;;;;;19.83;12.97;;;;;;;17.80;54.81;103044.81;5037826;28;20490;-69
2022/11/11 10:10:58;;;;;;;21.70;13.37;;;;;;;18.58;52.63;103043.41;5047780;28;20073;-69
2022/11/11 10:13:30;;;;;;;19.33;12.17;;;;;;;18.32;52.72;103048.94;5043053;28;20444;-69
2022/11/11 10:16:14;;;;;;;17.23;11.73;;;;;;;18.90;51.76;103041.41;5046621;28;20072;-69
2022/11/11 10:18:57;;;;;;;20.47;12.83;;;;;;;18.41;53.47;103047.97;5054982;28;20033;-69
2022/11/11 10:21:31;;;;;;;21.92;11.68;;;;;;;18.55;51.61;103050.53;5040130;28;20056;-70
2022/11/11 10:24:00;;;;;;;19.57;11.83;;;;;;;17.76;54.05;103059.84;5067150;28;20021;-69
2022/11/11 10:26:38;;;;;;;18.30;11.67;;;;;;;17.38;55.49;103058.22;5039317;28;20051;-69
2022/11/11 10:29:12;;;;;;;19.63;11.87;;;;;;;17.41;56.03;103058.22;5046975;28;20519;-69
2022/11/11 10:31:40;;;;;;;20.53;12.23;;;;;;;19.42;50.63;103046.13;5050392;28;20111;-69
2022/11/11 10:34:10;;;;;;;18.10;12.17;;;;;;;19.02;50.70;103049.22;5034662;28;20112;-69
2022/11/11 10:36:45;;;;;;;17.93;12.33;;;;;;;18.00;54.55;103063.25;5037552;28;20564;-68
2022/11/11 10:39:15;;;;;;;27.43;12.13;;;;;;;18.61;52.33;103058.41;5034747;28;20036;-69
2022/11/11 10:41:47;;;;;;;20.30;12.37;;;;;;;17.48;55.33;103059.06;5047280;28;20025;-69
2022/11/11 10:44:34;;;;;;;19.60;12.00;;;;;;;18.29;52.88;103059.56;5037381;28;20135;-69
2022/11/11 10:47:04;;;;;;;22.17;12.33;;;;;;;18.82;51.98;103068.81;5057694;28;20056;-69
2022/11/11 10:49:34;;;;;;;22.50;12.53;;;;;;;18.33;53.35;103066.59;5043469;28;20056;-69
2022/11/11 10:52:09;;;;;;;17.23;11.20;;;;;;;18.55;52.28;103061.13;5043932;28;20079;-69
2022/11/11 10:54:47;;;;;;;16.87;11.60;;;;;;;17.89;53.50;103073.00;5044279;28;20094;-69
2022/11/11 10:57:35;;;;;;;17.57;11.00;;;;;;;17.69;55.05;103068.66;5043294;28;20087;-70
2022/11/11 11:00:05;;;;;;;19.07;11.07;;;;;;;18.44;53.02;103059.44;5040053;28;20045;-69
2022/11/11 11:02:52;;;;;;;20.87;11.27;;;;;;;18.05;54.56;103061.47;5041210;28;20053;-68
2022/11/11 11:05:35;;;;;;;22.00;10.87;;;;;;;18.48;52.57;103055.88;5052820;28;20115;-69
2022/11/11 11:08:15;;;;;;;17.83;10.73;;;;;;;17.72;54.36;103059.84;5040393;28;20584;-68
2022/11/11 11:10:46;;;;;;;15.87;10.67;;;;;;;17.76;55.34;103070.41;5046531;28;20040;-69
2022/11/11 11:13:51;;;;;;;17.07;11.10;;;;;;;18.35;53.47;103064.78;5038562;28;20052;-69
2022/11/11 11:16:24;;;;;;;17.33;11.67;;;;;;;18.09;54.17;103068.50;5041084;28;20384;-69
2022/11/11 11:19:22;;;;;;;19.23;12.00;;;;;;;18.63;53.20;103056.66;5085266;28;20066;-69
2022/11/11 11:21:59;;;;;;;18.17;10.53;;;;;;;18.57;52.14;103051.38;5047062;28;20029;-69
2022/11/11 11:24:26;;;;;;;17.17;9.90;;;;;;;18.86;51.78;103047.59;5038530;28;20033;-69
2022/11/11 11:26:59;;;;;;;17.93;9.63;;;;;;;18.29;54.05;103043.66;5041150;28;20024;-69
2022/11/11 11:29:37;;;;;;;14.67;9.70;;;;;;;19.21;50.56;103049.03;5047107;28;20043;-69
2022/11/11 11:32:20;;;;;;;15.03;9.93;;;;;;;18.17;52.69;103049.06;5038672;28;20029;-69
2022/11/11 11:34:56;;;;;;;14.10;9.73;;;;;;;19.34;49.45;103032.06;5046247;28;20145;-69
2022/11/11 11:37:23;;;;;;;15.33;9.87;;;;;;;19.26;49.86;103032.19;5046908;28;20033;-68
2022/11/11 11:40:00;;;;;;;16.33;9.50;;;;;;;19.43;49.51;103041.72;5049203;28;20035;-69
2022/11/11 11:42:43;;;;;;;17.45;8.80;;;;;;;19.41;50.21;103044.38;5056699;28;20424;-69
2022/11/11 11:45:35;;;;;;;16.13;9.90;;;;;;;19.52;48.70;103030.09;5043903;28;20071;-70
2022/11/11 11:48:05;;;;;;;12.70;9.18;;;;;;;19.35;49.94;103039.13;5042040;28;20037;-69
2022/11/11 11:50:51;;;;;;;14.63;9.57;;;;;;;20.13;47.45;103033.69;5055397;28;20453;-69
2022/11/11 11:53:26;;;;;;;17.73;9.82;;;;;;;19.30;48.72;103030.34;5051140;28;20501;-69
2022/11/11 11:56:29;;;;;;;15.13;10.43;;;;;;;19.92;48.60;103043.75;5059429;28;20041;-69
2022/11/11 11:59:33;;;;;;;16.25;11.48;;;;;;;20.53;47.29;103033.03;5045944;28;20041;-69
2022/11/11 12:02:34;;;;;;;18.08;11.25;;;;;;;19.49;49.40;103034.56;5058311;28;20072;-68
2022/11/11 12:05:39;;;;;;;18.55;11.52;;;;;;;20.24;47.32;103029.09;5045565;28;20052;-69
2022/11/11 12:08:31;;;;;;;20.55;11.70;;;;;;;20.55;47.29;103020.59;5053748;28;20037;-68
2022/11/11 12:11:34;;;;;;;18.10;11.43;;;;;;;20.50;46.65;103015.38;5047955;28;20032;-69
2022/11/11 12:14:36;;;;;;;17.70;11.15;;;;;;;21.42;45.16;103016.31;5018008;28;20049;-69
2022/11/11 12:17:24;;;;;;;19.05;11.45;;;;;;;20.35;47.25;103013.00;5045753;28;20028;-69
2022/11/11 12:19:52;;;;;;;14.93;10.85;;;;;;;19.91;48.71;103017.22;5051854;28;20041;-68
2022/11/11 12:22:39;;;;;;;16.05;9.85;;;;;;;20.74;46.57;103009.69;5042565;28;20030;-70
2022/11/11 12:25:36;;;;;;;17.92;10.25;;;;;;;20.74;47.26;103015.88;5068820;28;20028;-69
2022/11/11 12:28:15;;;;;;;16.88;10.88;;;;;;;20.55;47.33;103009.09;5050407;28;20036;-69
2022/11/11 12:30:50;;;;;;;17.70;10.45;;;;;;;22.44;44.03;103012.22;5045678;28;20036;-68
2022/11/11 12:33:42;;;;;;;17.38;10.95;;;;;;;21.42;45.76;103013.66;5061481;28;20083;-69